sensor_id;sensor_type;location;lat;lon;timestamp;pressure;altitude;pressure_sealevel;temperature;humidity
72975;BME280;61166;54.228;37.632;2023-05-12T04:28:16;99883.88;;;30.46;nan
72975;BME280;61166;54.228;37.632;2023-05-12T04:30:42;99892.47;;;28.10;nan
72975;BME280;61166;54.228;37.632;2023-05-12T04:33:09;99884.66;;;26.23;nan
72975;BME280;61166;54.228;37.632;2023-05-12T04:35:36;99885.09;;;26.99;nan
72975;BME280;61166;54.228;37.632;2023-05-12T04:38:02;99893.59;;;29.05;nan
72975;BME280;61166;54.228;37.632;2023-05-12T04:40:29;99896.66;;;29.21;nan
72975;BME280;61166;54.228;37.632;2023-05-12T04:42:59;99889.28;;;28.96;nan
72975;BME280;61166;54.228;37.632;2023-05-12T04:45:26;99889.06;;;30.89;nan
72975;BME280;61166;54.228;37.632;2023-05-12T04:47:52;99889.63;;;32.11;nan
72975;BME280;61166;54.228;37.632;2023-05-12T04:50:19;99887.88;;;32.88;nan
72975;BME280;61166;54.228;37.632;2023-05-12T04:52:45;99889.75;;;33.80;nan
72975;BME280;61166;54.228;37.632;2023-05-12T04:55:12;99885.41;;;34.89;nan
72975;BME280;61166;54.228;37.632;2023-05-12T04:57:38;99880.13;;;35.35;nan
72975;BME280;61166;54.228;37.632;2023-05-12T05:00:05;99877.84;;;35.18;nan
72975;BME280;61166;54.228;37.632;2023-05-12T05:02:32;99877.41;;;35.54;nan
72975;BME280;61166;54.228;37.632;2023-05-12T05:04:59;99882.34;;;35.68;nan
72975;BME280;61166;54.228;37.632;2023-05-12T05:07:25;99875.16;;;35.79;nan
72975;BME280;61166;54.228;37.632;2023-05-12T05:09:52;99877.81;;;36.44;nan
72975;BME280;61166;54.228;37.632;2023-05-12T05:12:18;99879.16;;;36.80;nan
72975;BME280;61166;54.228;37.632;2023-05-12T05:14:45;99878.41;;;37.13;nan
72975;BME280;61166;54.228;37.632;2023-05-12T05:17:12;99876.66;;;36.71;nan
72975;BME280;61166;54.228;37.632;2023-05-12T05:19:38;99871.22;;;36.49;nan
72975;BME280;61166;54.228;37.632;2023-05-12T05:22:23;99888.06;;;37.03;nan
72975;BME280;61166;54.228;37.632;2023-05-12T05:24:50;99871.94;;;37.25;nan
72975;BME280;61166;54.228;37.632;2023-05-12T06:52:46;99843.81;;;36.49;nan
72975;BME280;61166;54.228;37.632;2023-05-12T06:55:13;99836.28;;;35.93;nan
72975;BME280;61166;54.228;37.632;2023-05-12T06:57:39;99832.91;;;36.52;nan
72975;BME280;61166;54.228;37.632;2023-05-12T07:00:07;99834.81;;;37.04;nan
72975;BME280;61166;54.228;37.632;2023-05-12T07:02:34;99828.84;;;36.95;nan
72975;BME280;61166;54.228;37.632;2023-05-12T07:05:00;99824.72;;;35.19;nan
72975;BME280;61166;54.228;37.632;2023-05-12T07:07:27;99839.41;;;34.09;nan
72975;BME280;61166;54.228;37.632;2023-05-12T07:09:54;99837.28;;;33.87;nan
72975;BME280;61166;54.228;37.632;2023-05-12T07:12:23;99829.41;;;34.64;nan
72975;BME280;61166;54.228;37.632;2023-05-12T07:14:49;99825.72;;;35.49;nan
72975;BME280;61166;54.228;37.632;2023-05-12T07:17:16;99831.06;;;35.42;nan
72975;BME280;61166;54.228;37.632;2023-05-12T07:19:42;99824.81;;;35.64;nan
72975;BME280;61166;54.228;37.632;2023-05-12T07:22:10;99824.22;;;35.97;nan
72975;BME280;61166;54.228;37.632;2023-05-12T07:24:36;99830.47;;;34.94;nan
72975;BME280;61166;54.228;37.632;2023-05-12T07:27:03;99825.63;;;35.88;nan
72975;BME280;61166;54.228;37.632;2023-05-12T07:29:30;99823.88;;;36.75;nan
72975;BME280;61166;54.228;37.632;2023-05-12T07:34:23;99823.78;;;37.68;nan
72975;BME280;61166;54.228;37.632;2023-05-12T07:36:50;99811.66;;;37.02;nan
72975;BME280;61166;54.228;37.632;2023-05-12T07:39:17;99822.75;;;37.13;nan
72975;BME280;61166;54.228;37.632;2023-05-12T07:41:44;99813.06;;;36.85;nan
72975;BME280;61166;54.228;37.632;2023-05-12T07:44:11;99827.47;;;37.12;nan
72975;BME280;61166;54.228;37.632;2023-05-12T07:46:37;99813.50;;;37.21;nan
72975;BME280;61166;54.228;37.632;2023-05-12T07:49:04;99814.03;;;37.03;nan
72975;BME280;61166;54.228;37.632;2023-05-12T07:51:33;99818.69;;;36.43;nan
72975;BME280;61166;54.228;37.632;2023-05-12T07:53:59;99812.44;;;35.93;nan
72975;BME280;61166;54.228;37.632;2023-05-12T07:56:26;99813.56;;;34.54;nan
72975;BME280;61166;54.228;37.632;2023-05-12T07:58:52;99821.06;;;34.76;nan
72975;BME280;61166;54.228;37.632;2023-05-12T08:01:19;99803.34;;;34.86;nan
72975;BME280;61166;54.228;37.632;2023-05-12T08:03:45;99817.94;;;34.07;nan
72975;BME280;61166;54.228;37.632;2023-05-12T08:06:12;99812.72;;;35.04;nan
72975;BME280;61166;54.228;37.632;2023-05-12T08:08:39;99819.44;;;35.91;nan
72975;BME280;61166;54.228;37.632;2023-05-12T08:11:05;99798.69;;;36.95;nan
72975;BME280;61166;54.228;37.632;2023-05-12T08:13:32;99798.00;;;35.73;nan
72975;BME280;61166;54.228;37.632;2023-05-12T08:15:58;99812.06;;;32.54;nan
72975;BME280;61166;54.228;37.632;2023-05-12T08:18:25;99813.09;;;31.22;nan
72975;BME280;61166;54.228;37.632;2023-05-12T08:20:52;99808.06;;;30.91;nan
72975;BME280;61166;54.228;37.632;2023-05-12T08:23:18;99810.41;;;32.25;nan
72975;BME280;61166;54.228;37.632;2023-05-12T08:25:45;99807.31;;;32.50;nan
72975;BME280;61166;54.228;37.632;2023-05-12T08:28:12;99794.81;;;32.49;nan
72975;BME280;61166;54.228;37.632;2023-05-12T08:30:39;99801.13;;;33.30;nan
72975;BME280;61166;54.228;37.632;2023-05-12T08:33:06;99801.22;;;32.29;nan
72975;BME280;61166;54.228;37.632;2023-05-12T08:35:34;99795.06;;;32.08;nan
72975;BME280;61166;54.228;37.632;2023-05-12T08:38:00;99787.16;;;32.27;nan
72975;BME280;61166;54.228;37.632;2023-05-12T08:40:30;99777.91;;;33.52;nan
72975;BME280;61166;54.228;37.632;2023-05-12T08:43:23;99781.97;;;34.21;nan
72975;BME280;61166;54.228;37.632;2023-05-12T08:45:51;99782.69;;;33.27;nan
72975;BME280;61166;54.228;37.632;2023-05-12T08:48:18;99779.94;;;34.18;nan
72975;BME280;61166;54.228;37.632;2023-05-12T08:50:48;99778.97;;;36.03;nan
72975;BME280;61166;54.228;37.632;2023-05-12T08:58:30;99765.94;;;36.76;nan
72975;BME280;61166;54.228;37.632;2023-05-12T09:01:07;99764.19;;;36.64;nan
72975;BME280;61166;54.228;37.632;2023-05-12T09:03:34;99756.91;;;35.47;nan
72975;BME280;61166;54.228;37.632;2023-05-12T09:06:01;99763.84;;;36.36;nan
72975;BME280;61166;54.228;37.632;2023-05-12T09:08:29;99757.41;;;33.58;nan
72975;BME280;61166;54.228;37.632;2023-05-12T09:13:29;99763.88;;;31.36;nan
72975;BME280;61166;54.228;37.632;2023-05-12T09:16:00;99762.59;;;31.00;nan
72975;BME280;61166;54.228;37.632;2023-05-12T09:18:44;99766.69;;;29.68;nan
72975;BME280;61166;54.228;37.632;2023-05-12T09:21:12;99762.47;;;28.72;nan
72975;BME280;61166;54.228;37.632;2023-05-12T09:23:39;99763.41;;;27.62;nan
72975;BME280;61166;54.228;37.632;2023-05-12T09:26:06;99759.63;;;26.82;nan
72975;BME280;61166;54.228;37.632;2023-05-12T09:28:34;99767.63;;;26.38;nan
72975;BME280;61166;54.228;37.632;2023-05-12T09:33:33;99756.03;;;26.87;nan
72975;BME280;61166;54.228;37.632;2023-05-12T09:35:59;99748.84;;;26.33;nan
